バーレーン国際空港の過去48時間の天気

バーレーン国際空港 (Bahrain International Airport )

現在時刻: 10/1 18:50 +03 (10/1 15:50 UTC) 以下の時間は現地時間です。

過去48時間のMETAR気象情報
時間 風向 風速(m/s) 視程 気温(℃) 湿度(%) 気圧(hPa) 天気現象
1 18:30 北東 3 10km以上 33 63 1007
1 18:00 北東 3 10km以上 33 67 1006
1 17:30 北東 3 10km以上 33 67 1006
1 17:00 3 10km以上 34 63 1006
1 16:30 北北東 3 10km以上 35 53 1006
1 16:00 北東 3 10km以上 35 56 1006
1 15:30 北東 3 10km以上 35 60 1006
1 15:00 北東 4 10km以上 35 56 1006
1 14:30 北東 4 10km以上 35 56 1006
1 14:00 北東 3 10km以上 36 60 1006
1 13:30 東北東 4 10km以上 36 50 1006
1 13:00 北東 3 10km以上 37 47 1006
1 12:30 不定 2 10km以上 37 50 1006
1 12:00 西北西 3 10km以上 36 60 1007
1 11:30 北北西 4 10km以上 36 60 1007
1 11:00 北北西 3 10km以上 36 64 1007
1 10:30 4 10km以上 36 64 1007
1 10:00 不定 2 10km以上 37 45 1007
1 09:30 南南西 2 10km以上 36 47 1007
1 09:00 不定 2 10km以上 36 50 1007
1 08:30 2 10km以上 34 63 1007
1 08:00 3 10km以上 34 63 1007
1 07:30 3 10km以上 33 67 1006
1 07:00 3 10km以上 33 67 1006
1 06:30 南南東 3 10km以上 32 71 1006
1 06:00 南南東 3 10km以上 32 71 1006
1 05:30 南東 3 10km以上 32 71 1005
1 05:00 南東 2 10km以上 32 71 1005
1 04:30 南東 3 10km以上 32 71 1005
1 04:00 南南西 2 10km以上 32 71 1005
1 03:30 3 10km以上 32 71 1005
1 03:00 南南東 2 10km以上 32 71 1004
1 02:30 南東 4 10km以上 32 71 1004
1 02:00 南東 4 10km以上 32 67 1004
1 01:30 南東 3 10km以上 33 63 1004
1 01:00 南南東 3 10km以上 33 63 1004
1 00:30 南東 4 10km以上 33 67 1004
1 00:00 南東 5 10km以上 33 67 1004
30 23:30 南東 6 10km以上 33 67 1005
30 23:00 東南東 6 10km以上 33 71 1004
30 22:30 東南東 7 10km以上 33 67 1005
30 22:00 東南東 6 10km以上 33 67 1004
30 21:30 東南東 6 10km以上 33 71 1005
30 21:00 東南東 6 10km以上 33 71 1004
30 20:30 6 10km以上 33 71 1004
30 20:00 7 10km以上 33 67 1004
30 19:30 7 9000m 33 67 1004
30 19:00 8 8000m 34 63 1003
30 18:30 8 8000m 34 63 1003
30 18:00 8 8000m 34 63 1003
30 17:30 8 8000m 34 63 1003
30 17:00 8 9000m 34 67 1003
30 16:30 9 10km以上 34 67 1003
30 16:00 7 10km以上 36 42 1002
30 15:30 東南東 7 10km以上 36 47 1003
30 15:00 東南東 7 10km以上 36 47 1003
30 14:30 8 10km以上 36 42 1003
30 14:00 東南東 5 10km以上 39 26 1003
30 13:30 南東 4 10km以上 40 22 1003
30 13:00 南南東 4 10km以上 39 24 1003
30 12:30 南南東 5 10km以上 37 29 1003
30 12:00 南南東 5 10km以上 37 35 1004
30 11:30 南南東 5 10km以上 36 42 1004
30 11:00 4 10km以上 36 44 1005
30 10:30 4 10km以上 35 60 1005
30 10:00 5 10km以上 35 56 1005
30 09:30 5 10km以上 35 56 1005
30 09:00 南南東 5 10km以上 34 60 1005
30 08:30 南南東 6 10km以上 34 60 1005
30 08:00 南東 5 10km以上 34 60 1005
30 07:30 南南東 6 10km以上 33 63 1005
30 07:00 南南東 5 10km以上 33 67 1004
30 06:30 南東 4 10km以上 32 71 1004
30 06:00 南南東 4 10km以上 32 67 1003
30 05:30 南南東 3 10km以上 32 71 1003
30 05:00 南南東 3 10km以上 32 67 1003
30 04:30 南南東 4 10km以上 32 67 1003
30 04:00 南南東 4 10km以上 33 67 1003
30 03:30 南東 4 8000m 33 67 1003
30 03:00 南東 3 8000m 33 67 1003
30 02:30 南東 4 8000m 32 71 1003
30 02:00 南東 3 7000m 33 67 1003
30 01:30 南東 4 7000m 32 71 1003
30 01:00 南東 4 7000m 33 67 1003
30 00:30 南東 5 7000m 33 67 1003
30 00:00 南東 4 7000m 33 67 1003
29 23:30 南東 4 8000m 33 67 1003
29 23:00 南東 4 8000m 33 59 1003
29 22:30 南東 4 9000m 33 53 1004
OBBI 011530Z 04005KT 350V060 CAVOK 33/25 Q1007 NOSIG
OBBI 011500Z 04005KT CAVOK 33/26 Q1006 NOSIG
OBBI 011430Z 05006KT CAVOK 33/26 Q1006 NOSIG
OBBI 011400Z 01006KT CAVOK 34/26 Q1006 NOSIG
OBBI 011330Z 02005KT 340V040 CAVOK 35/24 Q1006 NOSIG
OBBI 011300Z 04005KT 350V070 9999 FEW030 35/25 Q1006 NOSIG
OBBI 011230Z 05006KT 020V080 9999 FEW030 35/26 Q1006 NOSIG
OBBI 011200Z 05007KT 360V080 9999 FEW030 35/25 Q1006 NOSIG
OBBI 011130Z 04007KT 360V070 9999 FEW030 35/25 Q1006 NOSIG
OBBI 011100Z 05005KT 020V090 CAVOK 36/27 Q1006 NOSIG
OBBI 011030Z 07007KT 030V100 CAVOK 36/24 Q1006 NOSIG
OBBI 011000Z 05006KT 360V090 9999 FEW030 37/24 Q1006 NOSIG
OBBI 010930Z VRB04KT 9999 FEW030 37/25 Q1006 NOSIG
OBBI 010900Z 30005KT 260V360 9999 FEW030 36/27 Q1007 NOSIG
OBBI 010830Z 34007KT 290V010 CAVOK 36/27 Q1007 NOSIG
OBBI 010800Z 34006KT 280V010 CAVOK 36/28 Q1007 NOSIG
OBBI 010730Z 36008KT 310V050 CAVOK 36/28 Q1007 NOSIG
OBBI 010700Z VRB03KT CAVOK 37/23 Q1007 NOSIG
OBBI 010630Z 20003KT 140V240 CAVOK 36/23 Q1007 NOSIG
OBBI 010600Z VRB03KT CAVOK 36/24 Q1007 NOSIG
OBBI 010530Z 19004KT 140V220 CAVOK 34/26 Q1007 NOSIG
OBBI 010500Z 18005KT 140V230 CAVOK 34/26 Q1007 NOSIG
OBBI 010430Z 19005KT 130V250 CAVOK 33/26 Q1006 NOSIG
OBBI 010400Z 17005KT 130V220 CAVOK 33/26 Q1006 NOSIG
OBBI 010330Z 15005KT CAVOK 32/26 Q1006 NOSIG
OBBI 010300Z 16006KT 120V210 CAVOK 32/26 Q1006 NOSIG
OBBI 010230Z 14006KT 120V180 CAVOK 32/26 Q1005 NOSIG
OBBI 010200Z 14004KT CAVOK 32/26 Q1005 NOSIG
OBBI 010130Z 14006KT 120V180 CAVOK 32/26 Q1005 NOSIG
OBBI 010100Z 20003KT 150V250 CAVOK 32/26 Q1005 NOSIG
OBBI 010030Z 18005KT 100V260 CAVOK 32/26 Q1005 NOSIG
OBBI 010000Z 15004KT 110V220 CAVOK 32/26 Q1004 NOSIG
OBBI 302330Z 14007KT 110V180 CAVOK 32/26 Q1004 NOSIG
OBBI 302300Z 14008KT CAVOK 32/25 Q1004 NOSIG
OBBI 302230Z 14006KT CAVOK 33/25 Q1004 NOSIG
OBBI 302200Z 15006KT 120V200 CAVOK 33/25 Q1004 NOSIG
OBBI 302130Z 14008KT 110V180 CAVOK 33/26 Q1004 NOSIG
OBBI 302100Z 13010KT CAVOK 33/26 Q1004 NOSIG
OBBI 302030Z 13011KT CAVOK 33/26 Q1005 NOSIG
OBBI 302000Z 12011KT CAVOK 33/27 Q1004 NOSIG
OBBI 301930Z 12014KT CAVOK 33/26 Q1005 NOSIG
OBBI 301900Z 11012KT CAVOK 33/26 Q1004 NOSIG
OBBI 301830Z 11012KT CAVOK 33/27 Q1005 NOSIG
OBBI 301800Z 11012KT CAVOK 33/27 Q1004 NOSIG
OBBI 301730Z 10012KT CAVOK 33/27 Q1004 NOSIG
OBBI 301700Z 10013KT CAVOK 33/26 Q1004 NOSIG
OBBI 301630Z 10014KT 9000 SKC 33/26 Q1004 NOSIG
OBBI 301600Z 10016KT 8000 SKC 34/26 Q1003 NOSIG
OBBI 301530Z 10015KT 8000 SKC 34/26 Q1003 NOSIG
OBBI 301500Z 10015KT 8000 NSC 34/26 Q1003 NOSIG
OBBI 301430Z 10015KT 8000 NSC 34/26 Q1003 NOSIG
OBBI 301400Z 10015KT 9000 NSC 34/27 Q1003 NOSIG
OBBI 301330Z 10017KT CAVOK 34/27 Q1003 NOSIG
OBBI 301300Z 10014KT CAVOK 36/21 Q1002 NOSIG
OBBI 301230Z 11013KT CAVOK 36/23 Q1003 NOSIG
OBBI 301200Z 11013KT CAVOK 36/23 Q1003 NOSIG
OBBI 301130Z 09015KT CAVOK 36/21 Q1003 NOSIG
OBBI 301100Z 12009KT CAVOK 39/16 Q1003 NOSIG
OBBI 301030Z 14008KT 100V160 9999 FEW040CB 40/14 Q1003 NOSIG
OBBI 301000Z 16007KT 120V210 9999 FEW040CB 39/15 Q1003 NOSIG
OBBI 300930Z 16009KT 120V200 9999 FEW040CB 37/16 Q1003 NOSIG
OBBI 300900Z 15010KT 120V200 9999 FEW040CB 37/19 Q1004 NOSIG
OBBI 300830Z 16009KT 120V200 9999 FEW040TCU 36/21 Q1004 NOSIG
OBBI 300800Z 18008KT 120V210 9999 FEW025 36/22 Q1005 NOSIG
OBBI 300730Z 18008KT 140V240 CAVOK 35/26 Q1005 NOSIG
OBBI 300700Z 17009KT 130V220 CAVOK 35/25 Q1005 NOSIG
OBBI 300630Z 17009KT 130V220 CAVOK 35/25 Q1005 NOSIG
OBBI 300600Z 15009KT 130V200 CAVOK 34/25 Q1005 NOSIG
OBBI 300530Z 16011KT 120V190 CAVOK 34/25 Q1005 NOSIG
OBBI 300500Z 14010KT CAVOK 34/25 Q1005 NOSIG
OBBI 300430Z 15011KT CAVOK 33/25 Q1005 NOSIG
OBBI 300400Z 15009KT CAVOK 33/26 Q1004 NOSIG
OBBI 300330Z 14008KT CAVOK 32/26 Q1004 NOSIG
OBBI 300300Z 16007KT 120V190 CAVOK 32/25 Q1003 NOSIG
OBBI 300230Z 15006KT 130V190 CAVOK 32/26 Q1003 NOSIG
OBBI 300200Z 15006KT CAVOK 32/25 Q1003 NOSIG
OBBI 300130Z 15008KT 120V180 CAVOK 32/25 Q1003 NOSIG
OBBI 300100Z 15007KT 120V180 CAVOK 33/26 Q1003 NOSIG
OBBI 300030Z 14007KT 8000 SKC 33/26 Q1003 NOSIG
OBBI 300000Z 14006KT 8000 SKC 33/26 Q1003 NOSIG
OBBI 292330Z 14007KT 8000 SKC 32/26 Q1003 NOSIG
OBBI 292300Z 14006KT 110V170 7000 SKC 33/26 Q1003 NOSIG
OBBI 292230Z 13007KT 110V170 7000 SKC 32/26 Q1003 NOSIG
OBBI 292200Z 13008KT 7000 SKC 33/26 Q1003 NOSIG
OBBI 292130Z 13009KT 7000 SKC 33/26 Q1003 NOSIG
OBBI 292100Z 13008KT 7000 SKC 33/26 Q1003 NOSIG
OBBI 292030Z 13007KT 8000 SKC 33/26 Q1003 NOSIG
OBBI 292000Z 13008KT 8000 SKC 33/24 Q1003 NOSIG
OBBI 291930Z 13008KT 9000 SKC 33/22 Q1004 NOSIG